sensor_id;sensor_type;location;lat;lon;timestamp;temperature;humidity
34406;DHT22;20658;45.630;8.886;2024-02-28T00:01:49;8.10;99.90
34406;DHT22;20658;45.630;8.886;2024-02-28T00:04:23;8.10;99.90
34406;DHT22;20658;45.630;8.886;2024-02-28T00:06:56;8.10;99.90
34406;DHT22;20658;45.630;8.886;2024-02-28T00:09:31;8.10;99.90
34406;DHT22;20658;45.630;8.886;2024-02-28T00:12:05;8.10;99.90
34406;DHT22;20658;45.630;8.886;2024-02-28T00:14:39;8.10;99.90
34406;DHT22;20658;45.630;8.886;2024-02-28T00:17:13;8.10;99.90
34406;DHT22;20658;45.630;8.886;2024-02-28T00:19:42;8.10;99.90
34406;DHT22;20658;45.630;8.886;2024-02-28T00:22:15;8.10;99.90
34406;DHT22;20658;45.630;8.886;2024-02-28T00:24:50;8.10;99.90
34406;DHT22;20658;45.630;8.886;2024-02-28T00:27:23;8.10;99.90
34406;DHT22;20658;45.630;8.886;2024-02-28T00:29:56;8.10;99.90
34406;DHT22;20658;45.630;8.886;2024-02-28T00:32:25;8.00;99.90
34406;DHT22;20658;45.630;8.886;2024-02-28T00:34:58;8.00;99.90
34406;DHT22;20658;45.630;8.886;2024-02-28T00:37:31;8.00;99.90
34406;DHT22;20658;45.630;8.886;2024-02-28T00:40:08;8.10;99.90
34406;DHT22;20658;45.630;8.886;2024-02-28T00:42:42;8.10;99.90
34406;DHT22;20658;45.630;8.886;2024-02-28T00:45:17;8.10;99.90
34406;DHT22;20658;45.630;8.886;2024-02-28T00:47:50;8.10;99.90
34406;DHT22;20658;45.630;8.886;2024-02-28T00:50:23;8.10;99.90
34406;DHT22;20658;45.630;8.886;2024-02-28T00:52:57;8.10;99.90
34406;DHT22;20658;45.630;8.886;2024-02-28T00:55:32;8.10;99.90
34406;DHT22;20658;45.630;8.886;2024-02-28T00:58:06;8.10;99.90
34406;DHT22;20658;45.630;8.886;2024-02-28T01:00:39;8.10;99.90
34406;DHT22;20658;45.630;8.886;2024-02-28T01:03:13;8.10;99.90
34406;DHT22;20658;45.630;8.886;2024-02-28T01:05:49;8.10;99.90
34406;DHT22;20658;45.630;8.886;2024-02-28T01:08:22;8.20;99.90
34406;DHT22;20658;45.630;8.886;2024-02-28T01:10:57;8.10;99.90
34406;DHT22;20658;45.630;8.886;2024-02-28T01:13:26;8.20;99.90
34406;DHT22;20658;45.630;8.886;2024-02-28T01:16:00;8.10;99.90
34406;DHT22;20658;45.630;8.886;2024-02-28T01:18:33;8.20;99.90
34406;DHT22;20658;45.630;8.886;2024-02-28T01:21:07;8.20;99.90
34406;DHT22;20658;45.630;8.886;2024-02-28T01:23:40;8.20;99.90
34406;DHT22;20658;45.630;8.886;2024-02-28T01:26:15;8.20;99.90
34406;DHT22;20658;45.630;8.886;2024-02-28T01:28:49;8.20;99.90
34406;DHT22;20658;45.630;8.886;2024-02-28T01:31:23;8.20;99.90
34406;DHT22;20658;45.630;8.886;2024-02-28T01:33:56;8.20;99.90
34406;DHT22;20658;45.630;8.886;2024-02-28T01:36:30;8.20;99.90
34406;DHT22;20658;45.630;8.886;2024-02-28T01:39:03;8.20;99.90
34406;DHT22;20658;45.630;8.886;2024-02-28T01:41:38;8.20;99.90
34406;DHT22;20658;45.630;8.886;2024-02-28T01:44:12;8.10;99.90
34406;DHT22;20658;45.630;8.886;2024-02-28T01:46:45;8.20;99.90
34406;DHT22;20658;45.630;8.886;2024-02-28T01:49:19;8.10;99.90
34406;DHT22;20658;45.630;8.886;2024-02-28T01:51:48;8.20;99.90
34406;DHT22;20658;45.630;8.886;2024-02-28T01:54:23;8.10;99.90
34406;DHT22;20658;45.630;8.886;2024-02-28T01:56:58;8.10;99.90
34406;DHT22;20658;45.630;8.886;2024-02-28T01:59:31;8.20;99.90
34406;DHT22;20658;45.630;8.886;2024-02-28T02:02:05;8.20;99.90
34406;DHT22;20658;45.630;8.886;2024-02-28T02:04:40;8.10;99.90
34406;DHT22;20658;45.630;8.886;2024-02-28T02:07:13;8.10;99.90
34406;DHT22;20658;45.630;8.886;2024-02-28T02:09:47;8.10;99.90
34406;DHT22;20658;45.630;8.886;2024-02-28T02:12:23;8.10;99.90
34406;DHT22;20658;45.630;8.886;2024-02-28T02:14:56;8.10;99.90
34406;DHT22;20658;45.630;8.886;2024-02-28T02:17:30;8.10;99.90
34406;DHT22;20658;45.630;8.886;2024-02-28T02:20:04;8.10;99.90
34406;DHT22;20658;45.630;8.886;2024-02-28T02:22:40;8.10;99.90
34406;DHT22;20658;45.630;8.886;2024-02-28T02:25:14;8.10;99.90
34406;DHT22;20658;45.630;8.886;2024-02-28T02:27:47;8.10;99.90
34406;DHT22;20658;45.630;8.886;2024-02-28T02:30:16;8.10;99.90
34406;DHT22;20658;45.630;8.886;2024-02-28T02:32:50;8.10;99.90
34406;DHT22;20658;45.630;8.886;2024-02-28T02:35:23;8.10;99.90
34406;DHT22;20658;45.630;8.886;2024-02-28T02:37:58;8.10;99.90
34406;DHT22;20658;45.630;8.886;2024-02-28T02:40:32;8.10;99.90
34406;DHT22;20658;45.630;8.886;2024-02-28T02:43:05;8.20;99.90
34406;DHT22;20658;45.630;8.886;2024-02-28T02:45:39;8.10;99.90
34406;DHT22;20658;45.630;8.886;2024-02-28T02:48:12;8.10;99.90
34406;DHT22;20658;45.630;8.886;2024-02-28T02:50:46;8.10;99.90
34406;DHT22;20658;45.630;8.886;2024-02-28T02:53:21;8.10;99.90
34406;DHT22;20658;45.630;8.886;2024-02-28T02:55:54;8.10;99.90
34406;DHT22;20658;45.630;8.886;2024-02-28T02:58:27;8.10;99.90
34406;DHT22;20658;45.630;8.886;2024-02-28T03:01:01;8.20;99.90
34406;DHT22;20658;45.630;8.886;2024-02-28T03:03:35;8.20;99.90
34406;DHT22;20658;45.630;8.886;2024-02-28T03:06:04;8.20;99.90
34406;DHT22;20658;45.630;8.886;2024-02-28T03:08:39;8.20;99.90
34406;DHT22;20658;45.630;8.886;2024-02-28T03:11:13;8.20;99.90
34406;DHT22;20658;45.630;8.886;2024-02-28T03:13:47;8.20;99.90
34406;DHT22;20658;45.630;8.886;2024-02-28T03:16:20;8.20;99.90
34406;DHT22;20658;45.630;8.886;2024-02-28T03:18:49;8.20;99.90
34406;DHT22;20658;45.630;8.886;2024-02-28T03:21:22;8.30;99.90
34406;DHT22;20658;45.630;8.886;2024-02-28T03:23:57;8.30;99.90
34406;DHT22;20658;45.630;8.886;2024-02-28T03:26:31;8.30;99.90
34406;DHT22;20658;45.630;8.886;2024-02-28T03:29:04;8.30;99.90
34406;DHT22;20658;45.630;8.886;2024-02-28T03:31:38;8.30;99.90
34406;DHT22;20658;45.630;8.886;2024-02-28T03:34:11;8.30;99.90
34406;DHT22;20658;45.630;8.886;2024-02-28T03:36:45;8.30;99.90
34406;DHT22;20658;45.630;8.886;2024-02-28T03:39:20;8.20;99.90
34406;DHT22;20658;45.630;8.886;2024-02-28T03:41:53;8.30;99.90
34406;DHT22;20658;45.630;8.886;2024-02-28T03:44:26;8.30;99.90
34406;DHT22;20658;45.630;8.886;2024-02-28T03:47:00;8.30;99.90
34406;DHT22;20658;45.630;8.886;2024-02-28T03:49:34;8.30;99.90
34406;DHT22;20658;45.630;8.886;2024-02-28T03:52:07;8.30;99.90
34406;DHT22;20658;45.630;8.886;2024-02-28T03:54:44;8.30;99.90
34406;DHT22;20658;45.630;8.886;2024-02-28T03:57:17;8.40;99.90
34406;DHT22;20658;45.630;8.886;2024-02-28T03:59:51;8.40;99.90
34406;DHT22;20658;45.630;8.886;2024-02-28T04:02:24;8.40;99.90
34406;DHT22;20658;45.630;8.886;2024-02-28T04:04:57;8.40;99.90
34406;DHT22;20658;45.630;8.886;2024-02-28T04:07:31;8.40;99.90
34406;DHT22;20658;45.630;8.886;2024-02-28T04:10:08;8.40;99.90
34406;DHT22;20658;45.630;8.886;2024-02-28T04:12:43;8.40;99.90
34406;DHT22;20658;45.630;8.886;2024-02-28T04:15:17;8.40;99.90
34406;DHT22;20658;45.630;8.886;2024-02-28T04:17:50;8.40;99.90
34406;DHT22;20658;45.630;8.886;2024-02-28T04:20:19;8.40;99.90
34406;DHT22;20658;45.630;8.886;2024-02-28T04:22:52;8.50;99.90
34406;DHT22;20658;45.630;8.886;2024-02-28T04:25:27;8.50;99.90
34406;DHT22;20658;45.630;8.886;2024-02-28T04:28:01;8.40;99.90
34406;DHT22;20658;45.630;8.886;2024-02-28T04:30:34;8.50;99.90
34406;DHT22;20658;45.630;8.886;2024-02-28T04:33:08;8.40;99.90
34406;DHT22;20658;45.630;8.886;2024-02-28T04:35:41;8.40;99.90
34406;DHT22;20658;45.630;8.886;2024-02-28T04:38:15;8.50;99.90
34406;DHT22;20658;45.630;8.886;2024-02-28T04:40:50;8.40;99.90
34406;DHT22;20658;45.630;8.886;2024-02-28T04:43:19;8.50;99.90
34406;DHT22;20658;45.630;8.886;2024-02-28T04:45:52;8.40;99.90
34406;DHT22;20658;45.630;8.886;2024-02-28T04:48:26;8.40;99.90
34406;DHT22;20658;45.630;8.886;2024-02-28T04:50:54;8.40;99.90
34406;DHT22;20658;45.630;8.886;2024-02-28T04:53:23;8.40;99.90
34406;DHT22;20658;45.630;8.886;2024-02-28T04:55:57;7.90;99.90
34406;DHT22;20658;45.630;8.886;2024-02-28T04:58:31;8.40;99.90
34406;DHT22;20658;45.630;8.886;2024-02-28T05:01:05;8.50;99.90
34406;DHT22;20658;45.630;8.886;2024-02-28T05:03:38;8.50;99.90
34406;DHT22;20658;45.630;8.886;2024-02-28T05:06:07;8.50;99.90
34406;DHT22;20658;45.630;8.886;2024-02-28T05:08:40;8.50;99.90
34406;DHT22;20658;45.630;8.886;2024-02-28T05:11:15;8.50;99.90
34406;DHT22;20658;45.630;8.886;2024-02-28T05:13:48;8.50;99.90
34406;DHT22;20658;45.630;8.886;2024-02-28T05:16:22;8.50;99.90
34406;DHT22;20658;45.630;8.886;2024-02-28T05:18:55;8.50;99.90
34406;DHT22;20658;45.630;8.886;2024-02-28T05:21:29;8.50;99.90
34406;DHT22;20658;45.630;8.886;2024-02-28T05:23:58;8.50;99.90
34406;DHT22;20658;45.630;8.886;2024-02-28T05:26:27;8.50;99.90
34406;DHT22;20658;45.630;8.886;2024-02-28T05:28:58;8.50;99.90
34406;DHT22;20658;45.630;8.886;2024-02-28T05:31:32;8.40;99.90
34406;DHT22;20658;45.630;8.886;2024-02-28T05:34:01;8.50;99.90
34406;DHT22;20658;45.630;8.886;2024-02-28T05:36:30;8.50;99.90
34406;DHT22;20658;45.630;8.886;2024-02-28T05:39:04;8.50;99.90
34406;DHT22;20658;45.630;8.886;2024-02-28T05:41:41;8.50;99.90
34406;DHT22;20658;45.630;8.886;2024-02-28T05:44:10;8.50;99.90
34406;DHT22;20658;45.630;8.886;2024-02-28T05:46:43;8.50;99.90
34406;DHT22;20658;45.630;8.886;2024-02-28T05:49:17;8.50;99.90
34406;DHT22;20658;45.630;8.886;2024-02-28T05:51:50;8.50;99.90
34406;DHT22;20658;45.630;8.886;2024-02-28T05:54:25;8.50;99.90
34406;DHT22;20658;45.630;8.886;2024-02-28T05:57:00;8.50;99.90
34406;DHT22;20658;45.630;8.886;2024-02-28T05:59:34;8.40;99.90
34406;DHT22;20658;45.630;8.886;2024-02-28T06:02:07;8.50;99.90
34406;DHT22;20658;45.630;8.886;2024-02-28T06:04:41;8.50;99.90
34406;DHT22;20658;45.630;8.886;2024-02-28T06:07:14;8.50;99.90
34406;DHT22;20658;45.630;8.886;2024-02-28T06:09:43;8.50;99.90
34406;DHT22;20658;45.630;8.886;2024-02-28T06:12:18;8.50;99.90
34406;DHT22;20658;45.630;8.886;2024-02-28T06:14:51;8.50;99.90
34406;DHT22;20658;45.630;8.886;2024-02-28T06:17:24;8.50;99.90
34406;DHT22;20658;45.630;8.886;2024-02-28T06:19:58;8.40;99.90
34406;DHT22;20658;45.630;8.886;2024-02-28T06:22:31;8.40;99.90
34406;DHT22;20658;45.630;8.886;2024-02-28T06:25:06;8.40;99.90
34406;DHT22;20658;45.630;8.886;2024-02-28T06:27:50;8.40;99.90
34406;DHT22;20658;45.630;8.886;2024-02-28T06:30:25;8.40;99.90
34406;DHT22;20658;45.630;8.886;2024-02-28T06:32:59;8.40;99.90
34406;DHT22;20658;45.630;8.886;2024-02-28T06:35:32;8.40;99.90
34406;DHT22;20658;45.630;8.886;2024-02-28T06:38:01;8.40;99.90
34406;DHT22;20658;45.630;8.886;2024-02-28T06:40:29;8.50;99.90
34406;DHT22;20658;45.630;8.886;2024-02-28T06:43:04;8.50;99.90
34406;DHT22;20658;45.630;8.886;2024-02-28T06:45:38;8.50;99.90
34406;DHT22;20658;45.630;8.886;2024-02-28T06:48:12;8.50;99.90
34406;DHT22;20658;45.630;8.886;2024-02-28T06:50:45;8.50;99.90
34406;DHT22;20658;45.630;8.886;2024-02-28T06:53:14;8.50;99.90
34406;DHT22;20658;45.630;8.886;2024-02-28T06:55:47;8.50;99.90
34406;DHT22;20658;45.630;8.886;2024-02-28T06:58:22;8.50;99.90
34406;DHT22;20658;45.630;8.886;2024-02-28T07:00:52;8.50;99.90
34406;DHT22;20658;45.630;8.886;2024-02-28T07:03:25;8.50;99.90
34406;DHT22;20658;45.630;8.886;2024-02-28T07:05:59;8.50;99.90
34406;DHT22;20658;45.630;8.886;2024-02-28T07:08:32;8.60;99.90
34406;DHT22;20658;45.630;8.886;2024-02-28T07:11:13;8.60;99.90
34406;DHT22;20658;45.630;8.886;2024-02-28T07:13:48;8.60;99.90
34406;DHT22;20658;45.630;8.886;2024-02-28T07:16:16;8.70;99.90
34406;DHT22;20658;45.630;8.886;2024-02-28T07:18:45;8.60;99.90
34406;DHT22;20658;45.630;8.886;2024-02-28T07:21:19;8.60;99.90
34406;DHT22;20658;45.630;8.886;2024-02-28T07:23:52;8.70;99.90
34406;DHT22;20658;45.630;8.886;2024-02-28T07:26:26;8.70;99.90
34406;DHT22;20658;45.630;8.886;2024-02-28T07:28:56;8.70;99.90
34406;DHT22;20658;45.630;8.886;2024-02-28T07:31:24;8.70;99.90
34406;DHT22;20658;45.630;8.886;2024-02-28T07:33:58;8.70;99.90
34406;DHT22;20658;45.630;8.886;2024-02-28T07:36:31;8.80;99.90
34406;DHT22;20658;45.630;8.886;2024-02-28T07:39:06;8.80;99.90
34406;DHT22;20658;45.630;8.886;2024-02-28T07:41:41;8.80;99.90
34406;DHT22;20658;45.630;8.886;2024-02-28T07:44:10;8.80;99.90
34406;DHT22;20658;45.630;8.886;2024-02-28T07:46:45;8.90;99.90
34406;DHT22;20658;45.630;8.886;2024-02-28T07:49:13;8.90;99.90
34406;DHT22;20658;45.630;8.886;2024-02-28T07:51:47;8.90;99.90
34406;DHT22;20658;45.630;8.886;2024-02-28T07:54:15;8.90;99.90
34406;DHT22;20658;45.630;8.886;2024-02-28T07:56:49;8.90;99.90
34406;DHT22;20658;45.630;8.886;2024-02-28T07:59:19;9.00;99.90
34406;DHT22;20658;45.630;8.886;2024-02-28T08:01:53;9.00;99.90
34406;DHT22;20658;45.630;8.886;2024-02-28T08:04:22;9.00;99.90
34406;DHT22;20658;45.630;8.886;2024-02-28T08:06:51;9.00;99.90
34406;DHT22;20658;45.630;8.886;2024-02-28T08:09:25;9.00;99.90
34406;DHT22;20658;45.630;8.886;2024-02-28T08:11:58;9.00;99.90
34406;DHT22;20658;45.630;8.886;2024-02-28T08:14:33;9.00;99.90
34406;DHT22;20658;45.630;8.886;2024-02-28T08:17:02;9.10;99.90
34406;DHT22;20658;45.630;8.886;2024-02-28T08:19:30;9.10;99.90
34406;DHT22;20658;45.630;8.886;2024-02-28T08:22:04;9.10;99.90
34406;DHT22;20658;45.630;8.886;2024-02-28T08:24:37;9.10;99.90
34406;DHT22;20658;45.630;8.886;2024-02-28T08:27:11;9.10;99.90
34406;DHT22;20658;45.630;8.886;2024-02-28T08:29:41;9.20;99.90
34406;DHT22;20658;45.630;8.886;2024-02-28T08:32:17;9.20;99.90
34406;DHT22;20658;45.630;8.886;2024-02-28T08:34:47;9.20;99.90
34406;DHT22;20658;45.630;8.886;2024-02-28T08:37:21;9.20;99.90
34406;DHT22;20658;45.630;8.886;2024-02-28T08:39:49;9.20;99.90
34406;DHT22;20658;45.630;8.886;2024-02-28T08:42:24;9.30;99.90
34406;DHT22;20658;45.630;8.886;2024-02-28T08:45:00;9.40;99.90
34406;DHT22;20658;45.630;8.886;2024-02-28T08:47:30;9.40;99.90
34406;DHT22;20658;45.630;8.886;2024-02-28T08:50:04;9.50;99.90
34406;DHT22;20658;45.630;8.886;2024-02-28T08:52:38;9.60;99.90
34406;DHT22;20658;45.630;8.886;2024-02-28T08:55:07;9.70;99.90
34406;DHT22;20658;45.630;8.886;2024-02-28T08:57:41;9.70;99.90
34406;DHT22;20658;45.630;8.886;2024-02-28T09:00:17;9.70;99.90
34406;DHT22;20658;45.630;8.886;2024-02-28T09:02:51;9.80;99.90
34406;DHT22;20658;45.630;8.886;2024-02-28T09:05:24;9.80;99.90
34406;DHT22;20658;45.630;8.886;2024-02-28T09:07:58;9.80;99.90
34406;DHT22;20658;45.630;8.886;2024-02-28T09:10:27;9.80;99.90
34406;DHT22;20658;45.630;8.886;2024-02-28T09:13:03;9.90;99.90
34406;DHT22;20658;45.630;8.886;2024-02-28T09:15:40;9.90;99.90
34406;DHT22;20658;45.630;8.886;2024-02-28T09:18:13;9.90;99.90
34406;DHT22;20658;45.630;8.886;2024-02-28T09:20:47;9.90;99.90
34406;DHT22;20658;45.630;8.886;2024-02-28T09:23:20;9.90;99.90
34406;DHT22;20658;45.630;8.886;2024-02-28T09:25:54;9.90;99.90
34406;DHT22;20658;45.630;8.886;2024-02-28T09:28:28;9.90;99.90
34406;DHT22;20658;45.630;8.886;2024-02-28T09:31:03;10.10;99.90
34406;DHT22;20658;45.630;8.886;2024-02-28T09:33:37;10.30;99.90
34406;DHT22;20658;45.630;8.886;2024-02-28T09:36:10;10.40;99.90
34406;DHT22;20658;45.630;8.886;2024-02-28T09:38:39;10.60;99.90
34406;DHT22;20658;45.630;8.886;2024-02-28T09:41:15;10.70;99.90
34406;DHT22;20658;45.630;8.886;2024-02-28T09:43:45;10.80;99.90
34406;DHT22;20658;45.630;8.886;2024-02-28T09:46:21;10.80;99.90
34406;DHT22;20658;45.630;8.886;2024-02-28T09:48:55;10.90;99.90
34406;DHT22;20658;45.630;8.886;2024-02-28T09:51:30;11.00;99.90
34406;DHT22;20658;45.630;8.886;2024-02-28T09:54:00;11.00;99.90
34406;DHT22;20658;45.630;8.886;2024-02-28T09:56:34;11.10;99.90
34406;DHT22;20658;45.630;8.886;2024-02-28T09:59:08;11.30;99.90
34406;DHT22;20658;45.630;8.886;2024-02-28T10:01:49;11.40;99.90
34406;DHT22;20658;45.630;8.886;2024-02-28T10:04:23;11.40;99.90
34406;DHT22;20658;45.630;8.886;2024-02-28T10:06:57;11.40;99.90
34406;DHT22;20658;45.630;8.886;2024-02-28T10:09:30;11.40;99.90
34406;DHT22;20658;45.630;8.886;2024-02-28T10:12:04;11.50;99.90
34406;DHT22;20658;45.630;8.886;2024-02-28T10:14:38;11.60;99.90
34406;DHT22;20658;45.630;8.886;2024-02-28T10:17:08;11.80;99.90
34406;DHT22;20658;45.630;8.886;2024-02-28T10:19:37;11.90;99.90
34406;DHT22;20658;45.630;8.886;2024-02-28T10:22:11;12.10;99.90
34406;DHT22;20658;45.630;8.886;2024-02-28T10:24:39;12.30;99.90
34406;DHT22;20658;45.630;8.886;2024-02-28T10:27:16;12.30;99.90
34406;DHT22;20658;45.630;8.886;2024-02-28T10:29:51;12.30;99.90
34406;DHT22;20658;45.630;8.886;2024-02-28T10:32:26;12.40;99.90
34406;DHT22;20658;45.630;8.886;2024-02-28T10:34:59;12.50;99.90
34406;DHT22;20658;45.630;8.886;2024-02-28T10:37:33;12.60;99.90
34406;DHT22;20658;45.630;8.886;2024-02-28T10:40:03;12.70;99.90
34406;DHT22;20658;45.630;8.886;2024-02-28T10:42:40;12.80;99.90
34406;DHT22;20658;45.630;8.886;2024-02-28T10:45:17;12.80;99.90
34406;DHT22;20658;45.630;8.886;2024-02-28T10:47:53;12.80;99.90
34406;DHT22;20658;45.630;8.886;2024-02-28T10:50:27;12.90;99.90
34406;DHT22;20658;45.630;8.886;2024-02-28T10:53:02;13.20;99.90
34406;DHT22;20658;45.630;8.886;2024-02-28T10:55:41;13.60;99.90
34406;DHT22;20658;45.630;8.886;2024-02-28T10:58:17;13.80;99.90
34406;DHT22;20658;45.630;8.886;2024-02-28T11:00:52;13.90;99.90
34406;DHT22;20658;45.630;8.886;2024-02-28T11:03:27;13.90;99.90
34406;DHT22;20658;45.630;8.886;2024-02-28T11:06:00;13.80;99.90
34406;DHT22;20658;45.630;8.886;2024-02-28T11:08:34;13.70;99.90
34406;DHT22;20658;45.630;8.886;2024-02-28T11:11:07;14.10;99.90
34406;DHT22;20658;45.630;8.886;2024-02-28T11:13:37;14.20;99.90
34406;DHT22;20658;45.630;8.886;2024-02-28T11:16:11;14.20;99.90
34406;DHT22;20658;45.630;8.886;2024-02-28T11:18:49;14.40;99.90
34406;DHT22;20658;45.630;8.886;2024-02-28T11:21:24;14.60;99.90
34406;DHT22;20658;45.630;8.886;2024-02-28T11:24:00;14.80;99.90
34406;DHT22;20658;45.630;8.886;2024-02-28T11:26:35;14.80;99.90
34406;DHT22;20658;45.630;8.886;2024-02-28T11:29:03;14.90;99.90
34406;DHT22;20658;45.630;8.886;2024-02-28T11:31:37;15.10;99.90
34406;DHT22;20658;45.630;8.886;2024-02-28T11:34:12;15.60;99.90
34406;DHT22;20658;45.630;8.886;2024-02-28T11:36:47;15.40;99.90
34406;DHT22;20658;45.630;8.886;2024-02-28T11:39:22;15.30;99.90
34406;DHT22;20658;45.630;8.886;2024-02-28T11:42:11;15.10;99.90
34406;DHT22;20658;45.630;8.886;2024-02-28T11:44:53;15.20;99.90
34406;DHT22;20658;45.630;8.886;2024-02-28T11:47:28;15.10;99.90
34406;DHT22;20658;45.630;8.886;2024-02-28T11:50:04;15.10;99.90
34406;DHT22;20658;45.630;8.886;2024-02-28T11:52:39;15.00;99.90
34406;DHT22;20658;45.630;8.886;2024-02-28T11:55:08;15.00;99.90
34406;DHT22;20658;45.630;8.886;2024-02-28T11:57:41;15.10;99.90
34406;DHT22;20658;45.630;8.886;2024-02-28T12:00:11;14.90;99.90
34406;DHT22;20658;45.630;8.886;2024-02-28T12:02:41;14.70;99.90
34406;DHT22;20658;45.630;8.886;2024-02-28T12:05:16;14.70;99.90
34406;DHT22;20658;45.630;8.886;2024-02-28T12:07:50;14.80;99.90
34406;DHT22;20658;45.630;8.886;2024-02-28T12:10:25;14.70;99.90
34406;DHT22;20658;45.630;8.886;2024-02-28T12:12:59;14.70;99.90
34406;DHT22;20658;45.630;8.886;2024-02-28T12:15:28;14.70;99.90
34406;DHT22;20658;45.630;8.886;2024-02-28T12:18:08;14.90;99.90
34406;DHT22;20658;45.630;8.886;2024-02-28T12:20:44;14.90;99.90
34406;DHT22;20658;45.630;8.886;2024-02-28T12:23:19;14.90;99.90
34406;DHT22;20658;45.630;8.886;2024-02-28T12:25:52;14.90;99.90
34406;DHT22;20658;45.630;8.886;2024-02-28T12:28:21;14.90;99.90
34406;DHT22;20658;45.630;8.886;2024-02-28T12:30:54;15.00;99.90
34406;DHT22;20658;45.630;8.886;2024-02-28T12:33:28;15.00;99.90
34406;DHT22;20658;45.630;8.886;2024-02-28T12:36:03;15.10;99.90
34406;DHT22;20658;45.630;8.886;2024-02-28T12:38:36;15.10;99.90
34406;DHT22;20658;45.630;8.886;2024-02-28T12:41:10;15.20;99.90
34406;DHT22;20658;45.630;8.886;2024-02-28T12:43:44;15.10;99.90
34406;DHT22;20658;45.630;8.886;2024-02-28T12:46:17;15.20;99.90
34406;DHT22;20658;45.630;8.886;2024-02-28T12:48:51;15.40;99.90
34406;DHT22;20658;45.630;8.886;2024-02-28T12:51:38;15.50;99.90
34406;DHT22;20658;45.630;8.886;2024-02-28T12:54:12;15.70;99.90
34406;DHT22;20658;45.630;8.886;2024-02-28T12:56:47;15.70;99.90
34406;DHT22;20658;45.630;8.886;2024-02-28T12:59:21;15.70;99.90
34406;DHT22;20658;45.630;8.886;2024-02-28T13:01:55;15.80;99.50
34406;DHT22;20658;45.630;8.886;2024-02-28T13:04:28;15.80;98.80
34406;DHT22;20658;45.630;8.886;2024-02-28T13:07:03;15.90;98.80
34406;DHT22;20658;45.630;8.886;2024-02-28T13:09:37;16.00;99.00
34406;DHT22;20658;45.630;8.886;2024-02-28T13:12:11;15.90;96.40
34406;DHT22;20658;45.630;8.886;2024-02-28T13:14:44;16.10;96.60
34406;DHT22;20658;45.630;8.886;2024-02-28T13:17:18;16.30;93.80
34406;DHT22;20658;45.630;8.886;2024-02-28T13:19:52;16.40;92.10
34406;DHT22;20658;45.630;8.886;2024-02-28T13:22:26;16.40;93.70
34406;DHT22;20658;45.630;8.886;2024-02-28T13:25:00;16.10;93.60
34406;DHT22;20658;45.630;8.886;2024-02-28T13:27:34;15.90;93.80
34406;DHT22;20658;45.630;8.886;2024-02-28T13:30:08;16.00;93.40
34406;DHT22;20658;45.630;8.886;2024-02-28T13:32:42;16.00;94.10
34406;DHT22;20658;45.630;8.886;2024-02-28T13:35:11;15.90;94.50
34406;DHT22;20658;45.630;8.886;2024-02-28T13:37:46;15.80;92.30
34406;DHT22;20658;45.630;8.886;2024-02-28T13:40:20;15.80;93.20
34406;DHT22;20658;45.630;8.886;2024-02-28T13:42:53;16.00;93.20
34406;DHT22;20658;45.630;8.886;2024-02-28T13:45:27;16.00;92.90
34406;DHT22;20658;45.630;8.886;2024-02-28T13:48:00;16.00;93.20
34406;DHT22;20658;45.630;8.886;2024-02-28T13:50:35;16.00;93.10
34406;DHT22;20658;45.630;8.886;2024-02-28T13:53:09;16.10;93.20
34406;DHT22;20658;45.630;8.886;2024-02-28T13:55:43;16.10;92.10
34406;DHT22;20658;45.630;8.886;2024-02-28T13:58:17;16.10;91.40
34406;DHT22;20658;45.630;8.886;2024-02-28T14:00:51;16.30;91.80
34406;DHT22;20658;45.630;8.886;2024-02-28T14:03:24;16.10;90.00
34406;DHT22;20658;45.630;8.886;2024-02-28T14:05:53;16.30;88.40
34406;DHT22;20658;45.630;8.886;2024-02-28T14:08:28;16.30;88.40
34406;DHT22;20658;45.630;8.886;2024-02-28T14:11:02;16.40;87.90
34406;DHT22;20658;45.630;8.886;2024-02-28T14:13:36;16.60;87.80
34406;DHT22;20658;45.630;8.886;2024-02-28T14:16:12;16.60;86.90
34406;DHT22;20658;45.630;8.886;2024-02-28T14:18:45;16.60;86.60
34406;DHT22;20658;45.630;8.886;2024-02-28T14:21:19;16.80;87.10
34406;DHT22;20658;45.630;8.886;2024-02-28T14:23:51;16.90;85.90
34406;DHT22;20658;45.630;8.886;2024-02-28T14:26:24;17.00;86.10
34406;DHT22;20658;45.630;8.886;2024-02-28T14:28:58;17.10;85.90
34406;DHT22;20658;45.630;8.886;2024-02-28T14:31:27;17.10;86.00
34406;DHT22;20658;45.630;8.886;2024-02-28T14:33:56;17.10;85.00
34406;DHT22;20658;45.630;8.886;2024-02-28T14:36:30;17.00;83.20
34406;DHT22;20658;45.630;8.886;2024-02-28T14:39:05;16.90;84.90
34406;DHT22;20658;45.630;8.886;2024-02-28T14:41:46;17.00;84.30
34406;DHT22;20658;45.630;8.886;2024-02-28T14:44:20;17.00;84.00
34406;DHT22;20658;45.630;8.886;2024-02-28T14:46:53;17.00;84.30
34406;DHT22;20658;45.630;8.886;2024-02-28T14:49:24;16.90;85.20
34406;DHT22;20658;45.630;8.886;2024-02-28T14:51:57;16.90;85.00
34406;DHT22;20658;45.630;8.886;2024-02-28T14:54:28;16.80;84.80
34406;DHT22;20658;45.630;8.886;2024-02-28T14:57:01;16.70;85.90
34406;DHT22;20658;45.630;8.886;2024-02-28T14:59:30;16.60;86.20
34406;DHT22;20658;45.630;8.886;2024-02-28T15:02:04;16.70;86.80
34406;DHT22;20658;45.630;8.886;2024-02-28T15:04:32;16.50;83.60
34406;DHT22;20658;45.630;8.886;2024-02-28T15:07:06;16.40;85.20
34406;DHT22;20658;45.630;8.886;2024-02-28T15:09:41;16.50;87.00
34406;DHT22;20658;45.630;8.886;2024-02-28T15:12:10;16.50;88.50
34406;DHT22;20658;45.630;8.886;2024-02-28T15:14:38;16.50;88.40
34406;DHT22;20658;45.630;8.886;2024-02-28T15:17:07;16.50;89.00
34406;DHT22;20658;45.630;8.886;2024-02-28T15:19:35;16.40;89.10
34406;DHT22;20658;45.630;8.886;2024-02-28T15:22:04;16.30;89.50
34406;DHT22;20658;45.630;8.886;2024-02-28T15:24:33;16.20;89.60
34406;DHT22;20658;45.630;8.886;2024-02-28T15:27:08;16.10;90.30
34406;DHT22;20658;45.630;8.886;2024-02-28T15:29:43;16.00;90.90
34406;DHT22;20658;45.630;8.886;2024-02-28T15:32:11;15.90;91.30
34406;DHT22;20658;45.630;8.886;2024-02-28T15:34:45;15.80;91.40
34406;DHT22;20658;45.630;8.886;2024-02-28T15:37:14;15.70;92.00
34406;DHT22;20658;45.630;8.886;2024-02-28T15:39:47;15.60;92.20
34406;DHT22;20658;45.630;8.886;2024-02-28T15:42:18;15.60;92.10
34406;DHT22;20658;45.630;8.886;2024-02-28T15:44:47;15.60;92.50
34406;DHT22;20658;45.630;8.886;2024-02-28T15:47:20;15.50;93.40
34406;DHT22;20658;45.630;8.886;2024-02-28T15:49:54;15.50;95.60
34406;DHT22;20658;45.630;8.886;2024-02-28T15:52:28;15.40;99.10
34406;DHT22;20658;45.630;8.886;2024-02-28T15:55:01;15.30;99.90
34406;DHT22;20658;45.630;8.886;2024-02-28T15:57:32;15.30;99.90
34406;DHT22;20658;45.630;8.886;2024-02-28T16:00:00;15.30;99.90
34406;DHT22;20658;45.630;8.886;2024-02-28T16:02:37;15.30;99.90
34406;DHT22;20658;45.630;8.886;2024-02-28T16:05:07;15.30;99.90
34406;DHT22;20658;45.630;8.886;2024-02-28T16:07:36;15.20;99.90
34406;DHT22;20658;45.630;8.886;2024-02-28T16:10:09;15.10;99.90
34406;DHT22;20658;45.630;8.886;2024-02-28T16:12:44;15.10;99.90
34406;DHT22;20658;45.630;8.886;2024-02-28T16:15:18;15.00;99.90
34406;DHT22;20658;45.630;8.886;2024-02-28T16:17:47;14.90;99.90